• Join FlightAware (Why Join?)
  • Login
  • US Flag 
04:29AM EDT


 

Airport Tracker/Info


-or-


 

Live Flight TrackerFlight Track Log ✈ UAL4550 ✈ 11-Apr-2013 ✈ KIAH - KMLU

Flight Track Log - Related Links

Times and Time Zones

All times are in EDT time to prevent confusion due to time zone crossing. See the UAL4550 flight status page for this flight to view local times or setup timezone preferences in your user account.

Time Position Orientation Groundspeed Altitude Reporting Facility
EDT Latitude Longitude Course Direction KTS MPH feet Rate Location/Type
09:40PM 29.9639 -95.3458 41° Northeast 153 176 900  Level Houston Center
09:41PM 29.9622 -95.3725 266° West 180 207 3,200 1,860 Climbing Houston Center
09:42PM 29.9997 -95.3525 25° Northeast 207 238 4,000 420 Climbing Houston Center
09:43PM 30.2356 -95.1275 33° Northeast  Level FlightAware Approximate
09:43PM 30.0625 -95.3125 29° Northeast 248 285 4,000  Level Houston Center
09:44PM 30.3223 -95.0621 35° Northeast  Level FlightAware Approximate
09:44PM 30.1264 -95.2731 28° Northeast 257 296 4,000  Level Houston Center
09:45PM 30.4069 -94.9931 41° Northeast  Level FlightAware Approximate
09:45PM 30.1833 -95.2197 39° Northeast 263 303 6,600  Level Houston Center
09:45PM 30.2067 -95.1978 39° Northeast 279 321 7,800 2,940 Climbing Houston Center
09:46PM 30.2447 -95.1617 39° Northeast 280 322 9,600 1,740 Climbing Houston Center
09:47PM 30.3122 -95.0981 39° Northeast 312 359 11,000 1,500 Climbing Houston Center
09:48PM 30.3894 -95.0192 41° Northeast 365 420 12,700 1,920 Climbing Houston Center
09:49PM 30.4894 -94.9411 34° Northeast 370 426 15,000 1,980 Climbing Houston Center
09:50PM 30.5744 -94.8753 34° Northeast 368 423 16,800 1,560 Climbing Houston Center
09:51PM 30.6664 -94.8056 33° Northeast 389 448 18,200 1,440 Climbing Houston Center
09:52PM 30.7447 -94.7100 46° Northeast 413 475 19,800 1,560 Climbing Houston Center
09:53PM 30.8186 -94.6036 51° Northeast 424 488 21,400 1,500 Climbing Houston Center
09:54PM 30.8928 -94.4944 52° Northeast 431 496 22,900 780 Climbing Houston Center
09:55PM 30.9881 -94.3558 51° Northeast 459 528 23,000  Climbing Houston Center
09:56PM 31.0700 -94.2339 52° Northeast 478 550 23,000  Level Houston Center
09:57PM 31.1314 -94.1397 53° Northeast 498 573 23,000  Level Fort Worth Center
09:57PM 31.1533 -94.1108 48° Northeast 486 559 23,000  Level Houston Center
09:58PM 31.2364 -93.9886 52° Northeast 485 558 23,000  Level Houston Center
09:59PM 31.3189 -93.8647 52° Northeast 486 559 23,000  Level Houston Center
10:00PM 31.4028 -93.7406 52° Northeast 486 559 23,000  Level Houston Center
10:01PM 31.4856 -93.6175 52° Northeast 484 557 23,000  Level Houston Center
10:02PM 31.5719 -93.4869 52° Northeast 485 558 23,000  Level Houston Center
10:03PM 31.6542 -93.3631 52° Northeast 481 554 23,000  Level Houston Center
10:04PM 31.7364 -93.2375 52° Northeast 482 555 23,000  Level Houston Center
10:05PM 31.8189 -93.1125 52° Northeast 482 555 23,000  Level Houston Center
10:06PM 31.9008 -92.9881 52° Northeast 481 554 23,000  Level Houston Center
10:07PM 31.9831 -92.8622 52° Northeast 481 554 23,000 -1,380 Level Houston Center
10:08PM 32.0633 -92.7408 52° Northeast 472 543 20,300 -3,300 Descending Houston Center
10:09PM 32.1378 -92.6253 53° Northeast 449 517 16,300 -4,500 Descending Houston Center
10:10PM 32.2197 -92.4975 53° Northeast 414 476 11,200 -3,300 Descending Houston Center
10:11PM 32.2769 -92.4069 53° Northeast 350 403 9,700 -1,500 Descending Houston Center